sensor_id;sensor_type;location;lat;lon;timestamp;P1;durP1;ratioP1;P2;durP2;ratioP2
10711;SDS011;5407;51.234;6.804;2024-03-08T00:00:17;18.40;;;14.43;;
10711;SDS011;5407;51.234;6.804;2024-03-08T00:02:45;17.33;;;14.20;;
10711;SDS011;5407;51.234;6.804;2024-03-08T00:05:14;16.70;;;14.47;;
10711;SDS011;5407;51.234;6.804;2024-03-08T00:07:43;16.40;;;14.47;;
10711;SDS011;5407;51.234;6.804;2024-03-08T00:10:11;15.53;;;13.93;;
10711;SDS011;5407;51.234;6.804;2024-03-08T00:12:39;17.37;;;13.67;;
10711;SDS011;5407;51.234;6.804;2024-03-08T00:15:07;17.33;;;14.87;;
10711;SDS011;5407;51.234;6.804;2024-03-08T00:17:36;17.27;;;13.67;;
10711;SDS011;5407;51.234;6.804;2024-03-08T00:20:03;16.23;;;14.50;;
10711;SDS011;5407;51.234;6.804;2024-03-08T00:22:34;17.20;;;15.40;;
10711;SDS011;5407;51.234;6.804;2024-03-08T00:25:13;18.77;;;15.27;;
10711;SDS011;5407;51.234;6.804;2024-03-08T00:27:56;15.93;;;13.87;;
10711;SDS011;5407;51.234;6.804;2024-03-08T00:30:25;17.67;;;14.97;;
10711;SDS011;5407;51.234;6.804;2024-03-08T00:32:55;16.73;;;14.93;;
10711;SDS011;5407;51.234;6.804;2024-03-08T00:35:25;16.90;;;15.10;;
10711;SDS011;5407;51.234;6.804;2024-03-08T00:38:11;16.97;;;14.73;;
10711;SDS011;5407;51.234;6.804;2024-03-08T00:40:45;16.20;;;14.60;;
10711;SDS011;5407;51.234;6.804;2024-03-08T00:43:33;16.33;;;14.53;;
10711;SDS011;5407;51.234;6.804;2024-03-08T00:46:11;18.53;;;15.13;;
10711;SDS011;5407;51.234;6.804;2024-03-08T00:48:42;16.20;;;14.50;;
10711;SDS011;5407;51.234;6.804;2024-03-08T00:51:16;16.33;;;14.70;;
10711;SDS011;5407;51.234;6.804;2024-03-08T00:56:49;17.03;;;15.20;;
10711;SDS011;5407;51.234;6.804;2024-03-08T00:59:29;17.17;;;15.43;;
10711;SDS011;5407;51.234;6.804;2024-03-08T01:02:06;16.73;;;14.40;;
10711;SDS011;5407;51.234;6.804;2024-03-08T01:04:34;18.33;;;15.23;;
10711;SDS011;5407;51.234;6.804;2024-03-08T01:07:01;17.07;;;15.27;;
10711;SDS011;5407;51.234;6.804;2024-03-08T01:09:29;16.77;;;15.07;;
10711;SDS011;5407;51.234;6.804;2024-03-08T01:11:56;19.70;;;14.93;;
10711;SDS011;5407;51.234;6.804;2024-03-08T01:14:24;17.60;;;15.43;;
10711;SDS011;5407;51.234;6.804;2024-03-08T01:16:51;16.90;;;15.03;;
10711;SDS011;5407;51.234;6.804;2024-03-08T01:19:20;19.03;;;15.47;;
10711;SDS011;5407;51.234;6.804;2024-03-08T01:21:47;17.70;;;15.67;;
10711;SDS011;5407;51.234;6.804;2024-03-08T01:24:13;19.47;;;16.20;;
10711;SDS011;5407;51.234;6.804;2024-03-08T01:26:42;18.40;;;14.90;;
10711;SDS011;5407;51.234;6.804;2024-03-08T01:29:10;16.00;;;14.43;;
10711;SDS011;5407;51.234;6.804;2024-03-08T01:31:37;18.30;;;15.13;;
10711;SDS011;5407;51.234;6.804;2024-03-08T01:34:03;17.70;;;15.80;;
10711;SDS011;5407;51.234;6.804;2024-03-08T01:36:30;18.27;;;15.50;;
10711;SDS011;5407;51.234;6.804;2024-03-08T01:38:57;18.87;;;15.60;;
10711;SDS011;5407;51.234;6.804;2024-03-08T01:41:24;20.00;;;16.10;;
10711;SDS011;5407;51.234;6.804;2024-03-08T01:43:55;17.90;;;15.33;;
10711;SDS011;5407;51.234;6.804;2024-03-08T01:46:22;17.53;;;15.67;;
10711;SDS011;5407;51.234;6.804;2024-03-08T01:48:49;16.87;;;15.07;;
10711;SDS011;5407;51.234;6.804;2024-03-08T01:51:18;18.50;;;16.60;;
10711;SDS011;5407;51.234;6.804;2024-03-08T01:53:45;17.57;;;15.77;;
10711;SDS011;5407;51.234;6.804;2024-03-08T01:56:13;20.30;;;16.30;;
10711;SDS011;5407;51.234;6.804;2024-03-08T01:58:40;19.07;;;16.50;;
10711;SDS011;5407;51.234;6.804;2024-03-08T02:01:09;22.13;;;16.53;;
10711;SDS011;5407;51.234;6.804;2024-03-08T02:03:39;17.97;;;16.07;;
10711;SDS011;5407;51.234;6.804;2024-03-08T02:06:09;19.80;;;15.97;;
10711;SDS011;5407;51.234;6.804;2024-03-08T02:08:38;17.90;;;16.07;;
10711;SDS011;5407;51.234;6.804;2024-03-08T02:11:05;19.90;;;15.90;;
10711;SDS011;5407;51.234;6.804;2024-03-08T02:13:32;18.70;;;16.30;;
10711;SDS011;5407;51.234;6.804;2024-03-08T02:16:00;18.60;;;16.67;;
10711;SDS011;5407;51.234;6.804;2024-03-08T02:18:28;18.73;;;16.70;;
10711;SDS011;5407;51.234;6.804;2024-03-08T02:20:57;18.87;;;16.67;;
10711;SDS011;5407;51.234;6.804;2024-03-08T02:23:25;18.83;;;16.90;;
10711;SDS011;5407;51.234;6.804;2024-03-08T02:25:53;19.63;;;16.63;;
10711;SDS011;5407;51.234;6.804;2024-03-08T02:28:21;20.60;;;17.70;;
10711;SDS011;5407;51.234;6.804;2024-03-08T02:30:50;19.20;;;17.17;;
10711;SDS011;5407;51.234;6.804;2024-03-08T02:33:20;19.47;;;17.10;;
10711;SDS011;5407;51.234;6.804;2024-03-08T02:35:47;18.20;;;16.07;;
10711;SDS011;5407;51.234;6.804;2024-03-08T02:38:17;21.07;;;17.03;;
10711;SDS011;5407;51.234;6.804;2024-03-08T02:40:44;21.73;;;17.80;;
10711;SDS011;5407;51.234;6.804;2024-03-08T02:43:12;18.23;;;16.40;;
10711;SDS011;5407;51.234;6.804;2024-03-08T02:45:40;18.60;;;16.67;;
10711;SDS011;5407;51.234;6.804;2024-03-08T02:48:09;18.23;;;16.30;;
10711;SDS011;5407;51.234;6.804;2024-03-08T02:50:36;22.57;;;18.23;;
10711;SDS011;5407;51.234;6.804;2024-03-08T02:53:04;19.63;;;17.53;;
10711;SDS011;5407;51.234;6.804;2024-03-08T02:55:33;19.40;;;17.37;;
10711;SDS011;5407;51.234;6.804;2024-03-08T02:58:01;19.30;;;17.20;;
10711;SDS011;5407;51.234;6.804;2024-03-08T03:00:28;20.57;;;16.63;;
10711;SDS011;5407;51.234;6.804;2024-03-08T03:02:56;21.50;;;17.57;;
10711;SDS011;5407;51.234;6.804;2024-03-08T03:05:23;19.77;;;17.70;;
10711;SDS011;5407;51.234;6.804;2024-03-08T03:07:50;21.07;;;17.77;;
10711;SDS011;5407;51.234;6.804;2024-03-08T03:10:18;18.90;;;16.63;;
10711;SDS011;5407;51.234;6.804;2024-03-08T03:12:48;19.40;;;17.33;;
10711;SDS011;5407;51.234;6.804;2024-03-08T03:15:15;18.93;;;17.00;;
10711;SDS011;5407;51.234;6.804;2024-03-08T03:17:45;20.83;;;16.83;;
10711;SDS011;5407;51.234;6.804;2024-03-08T03:20:17;19.53;;;17.53;;
10711;SDS011;5407;51.234;6.804;2024-03-08T03:22:55;19.27;;;16.97;;
10711;SDS011;5407;51.234;6.804;2024-03-08T03:25:26;19.20;;;16.53;;
10711;SDS011;5407;51.234;6.804;2024-03-08T03:28:04;18.93;;;16.93;;
10711;SDS011;5407;51.234;6.804;2024-03-08T03:30:33;19.00;;;17.00;;
10711;SDS011;5407;51.234;6.804;2024-03-08T03:33:00;19.83;;;16.97;;
10711;SDS011;5407;51.234;6.804;2024-03-08T03:35:35;18.67;;;16.80;;
10711;SDS011;5407;51.234;6.804;2024-03-08T03:38:04;20.90;;;18.30;;
10711;SDS011;5407;51.234;6.804;2024-03-08T03:40:34;19.10;;;17.10;;
10711;SDS011;5407;51.234;6.804;2024-03-08T03:43:01;19.60;;;16.77;;
10711;SDS011;5407;51.234;6.804;2024-03-08T03:45:30;19.10;;;17.10;;
10711;SDS011;5407;51.234;6.804;2024-03-08T03:48:01;20.47;;;17.27;;
10711;SDS011;5407;51.234;6.804;2024-03-08T03:50:30;19.67;;;16.77;;
10711;SDS011;5407;51.234;6.804;2024-03-08T03:52:59;19.43;;;17.37;;
10711;SDS011;5407;51.234;6.804;2024-03-08T03:55:37;18.67;;;16.70;;
10711;SDS011;5407;51.234;6.804;2024-03-08T03:58:14;19.80;;;17.73;;
10711;SDS011;5407;51.234;6.804;2024-03-08T04:00:41;19.70;;;17.17;;
10711;SDS011;5407;51.234;6.804;2024-03-08T04:03:08;20.87;;;17.40;;
10711;SDS011;5407;51.234;6.804;2024-03-08T04:05:35;20.40;;;17.27;;
10711;SDS011;5407;51.234;6.804;2024-03-08T04:08:02;18.90;;;16.90;;
10711;SDS011;5407;51.234;6.804;2024-03-08T04:10:29;19.73;;;17.63;;
10711;SDS011;5407;51.234;6.804;2024-03-08T04:12:57;20.70;;;16.40;;
10711;SDS011;5407;51.234;6.804;2024-03-08T04:15:26;19.50;;;17.27;;
10711;SDS011;5407;51.234;6.804;2024-03-08T04:17:53;19.23;;;16.80;;
10711;SDS011;5407;51.234;6.804;2024-03-08T04:20:20;22.70;;;18.07;;
10711;SDS011;5407;51.234;6.804;2024-03-08T04:22:47;20.07;;;17.17;;
10711;SDS011;5407;51.234;6.804;2024-03-08T04:25:14;19.83;;;17.83;;
10711;SDS011;5407;51.234;6.804;2024-03-08T04:27:41;19.10;;;16.73;;
10711;SDS011;5407;51.234;6.804;2024-03-08T04:30:10;21.47;;;19.17;;
10711;SDS011;5407;51.234;6.804;2024-03-08T04:32:39;19.37;;;17.40;;
10711;SDS011;5407;51.234;6.804;2024-03-08T04:35:08;19.97;;;17.87;;
10711;SDS011;5407;51.234;6.804;2024-03-08T04:37:35;19.60;;;17.57;;
10711;SDS011;5407;51.234;6.804;2024-03-08T04:40:02;21.53;;;18.50;;
10711;SDS011;5407;51.234;6.804;2024-03-08T04:42:29;21.00;;;17.90;;
10711;SDS011;5407;51.234;6.804;2024-03-08T04:44:58;23.50;;;18.13;;
10711;SDS011;5407;51.234;6.804;2024-03-08T04:47:25;20.27;;;17.90;;
10711;SDS011;5407;51.234;6.804;2024-03-08T04:49:53;21.17;;;17.50;;
10711;SDS011;5407;51.234;6.804;2024-03-08T04:52:21;20.43;;;17.60;;
10711;SDS011;5407;51.234;6.804;2024-03-08T04:54:49;19.40;;;17.30;;
10711;SDS011;5407;51.234;6.804;2024-03-08T04:57:16;22.07;;;17.63;;
10711;SDS011;5407;51.234;6.804;2024-03-08T04:59:43;20.03;;;17.67;;
10711;SDS011;5407;51.234;6.804;2024-03-08T05:02:10;19.57;;;17.57;;
10711;SDS011;5407;51.234;6.804;2024-03-08T05:04:37;20.37;;;17.10;;
10711;SDS011;5407;51.234;6.804;2024-03-08T05:07:06;19.43;;;17.43;;
10711;SDS011;5407;51.234;6.804;2024-03-08T05:09:35;20.73;;;18.07;;
10711;SDS011;5407;51.234;6.804;2024-03-08T05:12:04;20.23;;;17.83;;
10711;SDS011;5407;51.234;6.804;2024-03-08T05:14:33;23.13;;;18.70;;
10711;SDS011;5407;51.234;6.804;2024-03-08T05:17:00;21.10;;;18.57;;
10711;SDS011;5407;51.234;6.804;2024-03-08T05:19:29;20.10;;;18.00;;
10711;SDS011;5407;51.234;6.804;2024-03-08T05:21:56;22.43;;;18.80;;
10711;SDS011;5407;51.234;6.804;2024-03-08T05:24:33;24.27;;;18.80;;
10711;SDS011;5407;51.234;6.804;2024-03-08T05:27:09;20.33;;;17.47;;
10711;SDS011;5407;51.234;6.804;2024-03-08T05:29:41;20.90;;;18.30;;
10711;SDS011;5407;51.234;6.804;2024-03-08T05:32:11;20.07;;;17.93;;
10711;SDS011;5407;51.234;6.804;2024-03-08T05:34:39;21.83;;;18.13;;
10711;SDS011;5407;51.234;6.804;2024-03-08T05:37:07;22.83;;;18.17;;
10711;SDS011;5407;51.234;6.804;2024-03-08T05:39:35;20.77;;;17.97;;
10711;SDS011;5407;51.234;6.804;2024-03-08T05:42:02;22.00;;;18.57;;
10711;SDS011;5407;51.234;6.804;2024-03-08T05:44:29;24.20;;;18.40;;
10711;SDS011;5407;51.234;6.804;2024-03-08T05:46:57;24.67;;;19.00;;
10711;SDS011;5407;51.234;6.804;2024-03-08T05:49:34;23.77;;;19.17;;
10711;SDS011;5407;51.234;6.804;2024-03-08T05:52:06;24.03;;;18.67;;
10711;SDS011;5407;51.234;6.804;2024-03-08T05:54:39;25.20;;;18.43;;
10711;SDS011;5407;51.234;6.804;2024-03-08T05:57:08;20.83;;;17.80;;
10711;SDS011;5407;51.234;6.804;2024-03-08T05:59:35;23.43;;;18.37;;
10711;SDS011;5407;51.234;6.804;2024-03-08T06:02:05;21.77;;;18.90;;
10711;SDS011;5407;51.234;6.804;2024-03-08T06:04:36;27.60;;;19.87;;
10711;SDS011;5407;51.234;6.804;2024-03-08T06:07:03;21.50;;;19.17;;
10711;SDS011;5407;51.234;6.804;2024-03-08T06:09:33;22.60;;;18.73;;
10711;SDS011;5407;51.234;6.804;2024-03-08T06:12:04;20.77;;;18.50;;
10711;SDS011;5407;51.234;6.804;2024-03-08T06:14:35;22.67;;;19.27;;
10711;SDS011;5407;51.234;6.804;2024-03-08T06:17:02;24.27;;;20.13;;
10711;SDS011;5407;51.234;6.804;2024-03-08T06:19:31;21.77;;;18.87;;
10711;SDS011;5407;51.234;6.804;2024-03-08T06:22:00;24.30;;;19.47;;
10711;SDS011;5407;51.234;6.804;2024-03-08T06:24:31;21.83;;;19.30;;
10711;SDS011;5407;51.234;6.804;2024-03-08T06:26:58;24.03;;;19.03;;
10711;SDS011;5407;51.234;6.804;2024-03-08T06:29:26;23.77;;;19.50;;
10711;SDS011;5407;51.234;6.804;2024-03-08T06:31:53;21.80;;;19.20;;
10711;SDS011;5407;51.234;6.804;2024-03-08T06:34:21;23.07;;;18.83;;
10711;SDS011;5407;51.234;6.804;2024-03-08T06:36:56;23.53;;;19.47;;
10711;SDS011;5407;51.234;6.804;2024-03-08T06:39:28;26.67;;;20.10;;
10711;SDS011;5407;51.234;6.804;2024-03-08T06:41:57;24.30;;;20.60;;
10711;SDS011;5407;51.234;6.804;2024-03-08T06:44:24;26.50;;;18.97;;
10711;SDS011;5407;51.234;6.804;2024-03-08T06:46:54;23.40;;;19.37;;
10711;SDS011;5407;51.234;6.804;2024-03-08T06:49:22;22.63;;;19.57;;
10711;SDS011;5407;51.234;6.804;2024-03-08T06:51:53;21.93;;;19.30;;
10711;SDS011;5407;51.234;6.804;2024-03-08T06:54:22;22.57;;;19.67;;
10711;SDS011;5407;51.234;6.804;2024-03-08T06:56:55;22.93;;;19.23;;
10711;SDS011;5407;51.234;6.804;2024-03-08T06:59:28;23.37;;;19.90;;
10711;SDS011;5407;51.234;6.804;2024-03-08T07:01:58;22.03;;;18.87;;
10711;SDS011;5407;51.234;6.804;2024-03-08T07:04:26;22.97;;;19.10;;
10711;SDS011;5407;51.234;6.804;2024-03-08T07:07:03;26.73;;;18.97;;
10711;SDS011;5407;51.234;6.804;2024-03-08T07:09:30;24.90;;;19.23;;
10711;SDS011;5407;51.234;6.804;2024-03-08T07:11:57;23.17;;;18.60;;
10711;SDS011;5407;51.234;6.804;2024-03-08T07:14:25;21.13;;;18.90;;
10711;SDS011;5407;51.234;6.804;2024-03-08T07:16:52;21.60;;;19.13;;
10711;SDS011;5407;51.234;6.804;2024-03-08T07:19:20;24.40;;;19.83;;
10711;SDS011;5407;51.234;6.804;2024-03-08T07:21:48;29.50;;;19.77;;
10711;SDS011;5407;51.234;6.804;2024-03-08T07:24:15;21.73;;;18.93;;
10711;SDS011;5407;51.234;6.804;2024-03-08T07:27:03;21.63;;;19.07;;
10711;SDS011;5407;51.234;6.804;2024-03-08T07:29:31;24.87;;;19.57;;
10711;SDS011;5407;51.234;6.804;2024-03-08T07:32:01;22.90;;;19.07;;
10711;SDS011;5407;51.234;6.804;2024-03-08T07:34:41;21.10;;;18.77;;
10711;SDS011;5407;51.234;6.804;2024-03-08T07:37:08;20.97;;;18.73;;
10711;SDS011;5407;51.234;6.804;2024-03-08T07:39:36;21.73;;;19.43;;
10711;SDS011;5407;51.234;6.804;2024-03-08T07:42:04;21.23;;;18.77;;
10711;SDS011;5407;51.234;6.804;2024-03-08T07:44:31;21.33;;;19.13;;
10711;SDS011;5407;51.234;6.804;2024-03-08T07:46:58;21.90;;;19.30;;
10711;SDS011;5407;51.234;6.804;2024-03-08T07:49:25;22.50;;;19.60;;
10711;SDS011;5407;51.234;6.804;2024-03-08T07:51:53;24.00;;;18.97;;
10711;SDS011;5407;51.234;6.804;2024-03-08T07:54:20;22.00;;;18.03;;
10711;SDS011;5407;51.234;6.804;2024-03-08T07:56:47;27.40;;;19.10;;
10711;SDS011;5407;51.234;6.804;2024-03-08T07:59:16;21.73;;;18.43;;
10711;SDS011;5407;51.234;6.804;2024-03-08T08:01:43;20.97;;;18.67;;
10711;SDS011;5407;51.234;6.804;2024-03-08T08:04:10;25.23;;;17.83;;
10711;SDS011;5407;51.234;6.804;2024-03-08T08:06:37;21.57;;;18.53;;
10711;SDS011;5407;51.234;6.804;2024-03-08T08:09:07;21.43;;;19.13;;
10711;SDS011;5407;51.234;6.804;2024-03-08T08:11:40;20.27;;;18.07;;
10711;SDS011;5407;51.234;6.804;2024-03-08T08:14:08;22.13;;;18.67;;
10711;SDS011;5407;51.234;6.804;2024-03-08T08:16:35;20.03;;;17.73;;
10711;SDS011;5407;51.234;6.804;2024-03-08T08:19:03;22.13;;;18.70;;
10711;SDS011;5407;51.234;6.804;2024-03-08T08:21:33;23.07;;;18.17;;
10711;SDS011;5407;51.234;6.804;2024-03-08T08:24:00;21.97;;;17.90;;
10711;SDS011;5407;51.234;6.804;2024-03-08T08:26:30;20.50;;;17.43;;
10711;SDS011;5407;51.234;6.804;2024-03-08T08:28:58;18.83;;;16.63;;
10711;SDS011;5407;51.234;6.804;2024-03-08T08:31:25;19.47;;;17.13;;
10711;SDS011;5407;51.234;6.804;2024-03-08T08:33:52;18.63;;;16.67;;
10711;SDS011;5407;51.234;6.804;2024-03-08T08:36:23;19.00;;;16.97;;
10711;SDS011;5407;51.234;6.804;2024-03-08T08:38:49;17.27;;;15.37;;
10711;SDS011;5407;51.234;6.804;2024-03-08T08:41:19;18.10;;;16.07;;
10711;SDS011;5407;51.234;6.804;2024-03-08T08:43:48;16.80;;;15.03;;
10711;SDS011;5407;51.234;6.804;2024-03-08T08:46:16;21.00;;;15.10;;
10711;SDS011;5407;51.234;6.804;2024-03-08T08:48:43;18.50;;;14.53;;
10711;SDS011;5407;51.234;6.804;2024-03-08T08:51:11;19.17;;;14.70;;
10711;SDS011;5407;51.234;6.804;2024-03-08T08:53:39;16.37;;;13.97;;
10711;SDS011;5407;51.234;6.804;2024-03-08T08:56:08;15.57;;;13.97;;
10711;SDS011;5407;51.234;6.804;2024-03-08T08:58:38;16.77;;;14.27;;
10711;SDS011;5407;51.234;6.804;2024-03-08T09:01:07;16.70;;;14.43;;
10711;SDS011;5407;51.234;6.804;2024-03-08T09:03:35;16.17;;;13.60;;
10711;SDS011;5407;51.234;6.804;2024-03-08T09:06:02;18.50;;;14.37;;
10711;SDS011;5407;51.234;6.804;2024-03-08T09:08:30;15.40;;;13.47;;
10711;SDS011;5407;51.234;6.804;2024-03-08T09:10:57;15.93;;;14.23;;
10711;SDS011;5407;51.234;6.804;2024-03-08T09:13:24;14.83;;;13.30;;
10711;SDS011;5407;51.234;6.804;2024-03-08T09:15:51;16.47;;;13.23;;
10711;SDS011;5407;51.234;6.804;2024-03-08T09:18:20;16.83;;;13.37;;
10711;SDS011;5407;51.234;6.804;2024-03-08T09:20:47;17.50;;;13.70;;
10711;SDS011;5407;51.234;6.804;2024-03-08T09:23:14;15.47;;;13.57;;
10711;SDS011;5407;51.234;6.804;2024-03-08T09:25:42;15.97;;;14.03;;
10711;SDS011;5407;51.234;6.804;2024-03-08T09:28:09;15.27;;;13.23;;
10711;SDS011;5407;51.234;6.804;2024-03-08T09:30:37;14.10;;;12.60;;
10711;SDS011;5407;51.234;6.804;2024-03-08T09:33:04;13.97;;;12.57;;
10711;SDS011;5407;51.234;6.804;2024-03-08T09:35:32;18.30;;;13.00;;
10711;SDS011;5407;51.234;6.804;2024-03-08T09:37:59;16.17;;;13.03;;
10711;SDS011;5407;51.234;6.804;2024-03-08T09:40:26;15.63;;;13.03;;
10711;SDS011;5407;51.234;6.804;2024-03-08T09:42:53;14.90;;;13.30;;
10711;SDS011;5407;51.234;6.804;2024-03-08T09:45:20;15.43;;;12.73;;
10711;SDS011;5407;51.234;6.804;2024-03-08T09:47:49;16.73;;;12.37;;
10711;SDS011;5407;51.234;6.804;2024-03-08T09:50:16;14.80;;;12.47;;
10711;SDS011;5407;51.234;6.804;2024-03-08T09:52:46;16.93;;;13.13;;
10711;SDS011;5407;51.234;6.804;2024-03-08T09:55:13;14.43;;;12.73;;
10711;SDS011;5407;51.234;6.804;2024-03-08T09:57:42;14.43;;;12.37;;
10711;SDS011;5407;51.234;6.804;2024-03-08T10:00:32;14.67;;;12.13;;
10711;SDS011;5407;51.234;6.804;2024-03-08T10:03:00;13.83;;;11.57;;
10711;SDS011;5407;51.234;6.804;2024-03-08T10:05:27;14.20;;;12.40;;
10711;SDS011;5407;51.234;6.804;2024-03-08T10:07:55;14.27;;;12.10;;
10711;SDS011;5407;51.234;6.804;2024-03-08T10:10:22;13.77;;;11.33;;
10711;SDS011;5407;51.234;6.804;2024-03-08T10:12:49;16.53;;;11.80;;
10711;SDS011;5407;51.234;6.804;2024-03-08T10:15:17;13.20;;;11.33;;
10711;SDS011;5407;51.234;6.804;2024-03-08T10:17:45;14.23;;;11.40;;
10711;SDS011;5407;51.234;6.804;2024-03-08T10:20:15;11.97;;;10.57;;
10711;SDS011;5407;51.234;6.804;2024-03-08T10:22:43;14.83;;;10.77;;
10711;SDS011;5407;51.234;6.804;2024-03-08T10:25:12;17.97;;;11.33;;
10711;SDS011;5407;51.234;6.804;2024-03-08T10:27:39;12.23;;;10.03;;
10711;SDS011;5407;51.234;6.804;2024-03-08T10:30:06;14.60;;;10.13;;
10711;SDS011;5407;51.234;6.804;2024-03-08T10:32:37;12.32;;;9.07;;
10711;SDS011;5407;51.234;6.804;2024-03-08T10:35:06;11.82;;;9.98;;
10711;SDS011;5407;51.234;6.804;2024-03-08T10:37:35;11.13;;;9.27;;
10711;SDS011;5407;51.234;6.804;2024-03-08T10:40:12;19.92;;;10.07;;
10711;SDS011;5407;51.234;6.804;2024-03-08T10:42:45;9.52;;;8.57;;
10711;SDS011;5407;51.234;6.804;2024-03-08T10:45:19;9.40;;;8.50;;
10711;SDS011;5407;51.234;6.804;2024-03-08T10:47:55;11.93;;;9.02;;
10711;SDS011;5407;51.234;6.804;2024-03-08T10:50:30;9.88;;;8.60;;
10711;SDS011;5407;51.234;6.804;2024-03-08T10:52:59;10.23;;;9.23;;
10711;SDS011;5407;51.234;6.804;2024-03-08T10:55:29;10.43;;;8.20;;
10711;SDS011;5407;51.234;6.804;2024-03-08T10:57:59;10.10;;;8.23;;
10711;SDS011;5407;51.234;6.804;2024-03-08T11:00:26;9.82;;;8.82;;
10711;SDS011;5407;51.234;6.804;2024-03-08T11:02:54;11.75;;;8.40;;
10711;SDS011;5407;51.234;6.804;2024-03-08T11:05:31;19.65;;;8.38;;
10711;SDS011;5407;51.234;6.804;2024-03-08T11:08:03;17.23;;;8.70;;
10711;SDS011;5407;51.234;6.804;2024-03-08T11:10:48;11.65;;;8.38;;
10711;SDS011;5407;51.234;6.804;2024-03-08T11:13:33;9.48;;;7.32;;
10711;SDS011;5407;51.234;6.804;2024-03-08T11:16:00;8.30;;;7.47;;
10711;SDS011;5407;51.234;6.804;2024-03-08T11:18:32;10.85;;;8.50;;
10711;SDS011;5407;51.234;6.804;2024-03-08T11:21:01;9.00;;;7.90;;
10711;SDS011;5407;51.234;6.804;2024-03-08T11:23:32;8.82;;;7.30;;
10711;SDS011;5407;51.234;6.804;2024-03-08T11:26:00;8.60;;;7.70;;
10711;SDS011;5407;51.234;6.804;2024-03-08T11:28:30;8.95;;;7.63;;
10711;SDS011;5407;51.234;6.804;2024-03-08T11:33:52;8.38;;;7.57;;
10711;SDS011;5407;51.234;6.804;2024-03-08T11:36:20;8.35;;;7.50;;
10711;SDS011;5407;51.234;6.804;2024-03-08T11:38:48;7.88;;;7.05;;
10711;SDS011;5407;51.234;6.804;2024-03-08T11:41:18;9.60;;;7.15;;
10711;SDS011;5407;51.234;6.804;2024-03-08T11:43:46;9.35;;;8.13;;
10711;SDS011;5407;51.234;6.804;2024-03-08T11:46:13;8.90;;;8.10;;
10711;SDS011;5407;51.234;6.804;2024-03-08T11:48:41;10.02;;;7.97;;
10711;SDS011;5407;51.234;6.804;2024-03-08T11:51:10;8.60;;;7.75;;
10711;SDS011;5407;51.234;6.804;2024-03-08T11:53:38;11.88;;;7.95;;
10711;SDS011;5407;51.234;6.804;2024-03-08T11:56:06;9.10;;;8.20;;
10711;SDS011;5407;51.234;6.804;2024-03-08T11:58:35;8.20;;;7.43;;
10711;SDS011;5407;51.234;6.804;2024-03-08T12:01:03;8.82;;;7.70;;
10711;SDS011;5407;51.234;6.804;2024-03-08T12:03:31;10.93;;;8.35;;
10711;SDS011;5407;51.234;6.804;2024-03-08T12:05:59;8.40;;;7.45;;
10711;SDS011;5407;51.234;6.804;2024-03-08T12:08:27;8.65;;;7.85;;
10711;SDS011;5407;51.234;6.804;2024-03-08T12:10:54;7.97;;;7.13;;
10711;SDS011;5407;51.234;6.804;2024-03-08T12:13:25;8.75;;;7.78;;
10711;SDS011;5407;51.234;6.804;2024-03-08T12:15:56;11.10;;;8.52;;
10711;SDS011;5407;51.234;6.804;2024-03-08T12:18:24;8.80;;;8.00;;
10711;SDS011;5407;51.234;6.804;2024-03-08T12:21:03;8.30;;;7.50;;
10711;SDS011;5407;51.234;6.804;2024-03-08T12:23:32;8.23;;;7.35;;
10711;SDS011;5407;51.234;6.804;2024-03-08T12:26:08;7.55;;;6.85;;
10711;SDS011;5407;51.234;6.804;2024-03-08T12:28:38;9.23;;;7.28;;
10711;SDS011;5407;51.234;6.804;2024-03-08T12:31:07;8.10;;;7.30;;
10711;SDS011;5407;51.234;6.804;2024-03-08T12:33:36;7.90;;;7.07;;
10711;SDS011;5407;51.234;6.804;2024-03-08T12:36:03;8.20;;;7.13;;
10711;SDS011;5407;51.234;6.804;2024-03-08T12:38:32;7.53;;;6.82;;
10711;SDS011;5407;51.234;6.804;2024-03-08T12:41:01;8.65;;;6.60;;
10711;SDS011;5407;51.234;6.804;2024-03-08T12:43:28;7.57;;;6.88;;
10711;SDS011;5407;51.234;6.804;2024-03-08T12:45:56;7.43;;;6.68;;
10711;SDS011;5407;51.234;6.804;2024-03-08T12:48:25;7.82;;;7.03;;
10711;SDS011;5407;51.234;6.804;2024-03-08T12:50:52;12.35;;;7.47;;
10711;SDS011;5407;51.234;6.804;2024-03-08T12:53:20;7.97;;;6.97;;
10711;SDS011;5407;51.234;6.804;2024-03-08T12:55:48;7.65;;;6.95;;
10711;SDS011;5407;51.234;6.804;2024-03-08T12:58:15;11.80;;;7.50;;
10711;SDS011;5407;51.234;6.804;2024-03-08T13:00:42;8.15;;;7.28;;
10711;SDS011;5407;51.234;6.804;2024-03-08T13:03:09;7.90;;;7.10;;
10711;SDS011;5407;51.234;6.804;2024-03-08T13:05:38;7.70;;;6.82;;
10711;SDS011;5407;51.234;6.804;2024-03-08T13:08:07;8.68;;;6.88;;
10711;SDS011;5407;51.234;6.804;2024-03-08T13:10:38;7.90;;;7.10;;
10711;SDS011;5407;51.234;6.804;2024-03-08T13:13:05;7.78;;;6.97;;
10711;SDS011;5407;51.234;6.804;2024-03-08T13:15:35;7.90;;;7.10;;
10711;SDS011;5407;51.234;6.804;2024-03-08T13:18:01;9.63;;;7.63;;
10711;SDS011;5407;51.234;6.804;2024-03-08T13:20:30;16.27;;;7.10;;
10711;SDS011;5407;51.234;6.804;2024-03-08T13:22:58;7.68;;;6.97;;
10711;SDS011;5407;51.234;6.804;2024-03-08T13:25:26;9.52;;;7.65;;
10711;SDS011;5407;51.234;6.804;2024-03-08T13:27:53;11.45;;;7.53;;
10711;SDS011;5407;51.234;6.804;2024-03-08T13:30:22;15.45;;;7.45;;
10711;SDS011;5407;51.234;6.804;2024-03-08T13:32:52;10.85;;;8.07;;
10711;SDS011;5407;51.234;6.804;2024-03-08T13:35:19;8.95;;;7.82;;
10711;SDS011;5407;51.234;6.804;2024-03-08T13:37:50;9.18;;;7.53;;
10711;SDS011;5407;51.234;6.804;2024-03-08T13:40:19;11.63;;;8.10;;
10711;SDS011;5407;51.234;6.804;2024-03-08T13:42:46;9.65;;;7.93;;
10711;SDS011;5407;51.234;6.804;2024-03-08T13:45:14;10.15;;;8.00;;
10711;SDS011;5407;51.234;6.804;2024-03-08T13:47:43;8.80;;;7.88;;
10711;SDS011;5407;51.234;6.804;2024-03-08T13:50:11;8.70;;;7.80;;
10711;SDS011;5407;51.234;6.804;2024-03-08T13:52:38;11.10;;;8.23;;
10711;SDS011;5407;51.234;6.804;2024-03-08T13:55:06;8.52;;;7.63;;
10711;SDS011;5407;51.234;6.804;2024-03-08T13:57:35;9.25;;;7.95;;
10711;SDS011;5407;51.234;6.804;2024-03-08T14:00:02;9.73;;;7.93;;
10711;SDS011;5407;51.234;6.804;2024-03-08T14:02:38;8.30;;;7.50;;
10711;SDS011;5407;51.234;6.804;2024-03-08T14:05:06;9.30;;;7.43;;
10711;SDS011;5407;51.234;6.804;2024-03-08T14:07:34;9.77;;;7.90;;
10711;SDS011;5407;51.234;6.804;2024-03-08T14:10:01;9.17;;;8.20;;
10711;SDS011;5407;51.234;6.804;2024-03-08T14:12:28;8.27;;;7.47;;
10711;SDS011;5407;51.234;6.804;2024-03-08T14:14:56;9.50;;;7.20;;
10711;SDS011;5407;51.234;6.804;2024-03-08T14:17:24;8.48;;;7.57;;
10711;SDS011;5407;51.234;6.804;2024-03-08T14:19:52;8.57;;;7.67;;
10711;SDS011;5407;51.234;6.804;2024-03-08T14:22:19;9.93;;;7.60;;
10711;SDS011;5407;51.234;6.804;2024-03-08T14:24:46;9.50;;;8.50;;
10711;SDS011;5407;51.234;6.804;2024-03-08T14:27:14;9.10;;;8.10;;
10711;SDS011;5407;51.234;6.804;2024-03-08T14:29:43;9.37;;;8.47;;
10711;SDS011;5407;51.234;6.804;2024-03-08T14:32:12;10.80;;;8.27;;
10711;SDS011;5407;51.234;6.804;2024-03-08T14:34:39;9.77;;;8.17;;
10711;SDS011;5407;51.234;6.804;2024-03-08T14:37:06;10.63;;;8.07;;
10711;SDS011;5407;51.234;6.804;2024-03-08T14:39:36;8.90;;;8.00;;
10711;SDS011;5407;51.234;6.804;2024-03-08T14:42:03;10.50;;;8.00;;
10711;SDS011;5407;51.234;6.804;2024-03-08T14:44:31;9.57;;;8.30;;
10711;SDS011;5407;51.234;6.804;2024-03-08T14:46:58;10.73;;;8.43;;
10711;SDS011;5407;51.234;6.804;2024-03-08T14:49:27;13.03;;;9.90;;
10711;SDS011;5407;51.234;6.804;2024-03-08T14:51:54;11.03;;;9.90;;
10711;SDS011;5407;51.234;6.804;2024-03-08T14:54:23;10.70;;;9.63;;
10711;SDS011;5407;51.234;6.804;2024-03-08T14:56:51;10.83;;;9.43;;